Main page
METAR-TAF:

METAR-TAF

Airports :

Venice Marco Polo Airport

Venice, Italy

latitude: 45-30N, longitude: 012-20E, elevation: 2 m

Current weather observation

The report was made 38 minutes ago, at 16:50 UTC
Wind 9 kt from the East/Southeast
Temperature 16°C
Humidity 77%
Pressure 1011 hPa
Visibility 10 km or more
Few clouds at a height of 7000 ft

METAR: LIPZ 221650Z 12009KT 9999 FEW070 16/12 Q1011 NOSIG

Time: 19:28 (17:28 UTC)

Forecast

The report was made 6 hours and 28 minutes ago, at 11:00 UTC
Forecast valid from 22 at 12 UTC to 23 at 18 UTC
Wind 12 kt from the East/Southeast
Visibility: 9000 m
Scattered clouds at a height of 1500 ft
Broken clouds at a height of 3000 ft
Becoming
from 22 at 20 UTC to 22 at 23 UTC
Wind 15 kt from the East with gusts up to 25 kt
rain
Temporary
from 23 at 11 UTC to 23 at 18 UTC
Visibility: 4000 m
thunderstorm, rain

TAF: LIPZ 221100Z 2212/2318 12012KT 9000 SCT015 BKN030 BECMG 2220/2223 08015G25KT RA TEMPO 2311/2318 4000 TSRA

Weather observations and forecasts of more than 4000 airports (METAR and TAF reports).

The available stations are represented by yellow and red dots on the map.

Hover mouse over dot to see the name of the station.

Then click to see weather observations and forecasts.

To change the map : click on the green buttons with a black cross to zoom in, on the green button with a dash to zoom out, or on the green arrows for adjacent maps.


METAR-TAF: